This is the latest recevied weather packets stored in our database for station/object IK0OZB-10. If no packets are shown the sender has not sent any weather packets the latest 10 day(s).
| Time | Temp. | Humidity | Pressure | Rain* | Wind** | Luminosity | Snow |
|---|---|---|---|---|---|---|---|
| 1777704309 | 15° C | 49% | 1024.1 hPa | - | - | - | - |
| 1777703409 | 14.44° C | 52% | 1024.1 hPa | - | - | - | - |
| 1777702509 | 13.89° C | 54% | 1024.2 hPa | - | - | - | - |
| 1777701609 | 13.33° C | 52% | 1024 hPa | - | - | - | - |
| 1777700709 | 12.78° C | 59% | 1024 hPa | - | - | - | - |
| 1777699809 | 12.22° C | 59% | 1023.8 hPa | - | - | - | - |
| 1777698909 | 11.67° C | 58% | 1023.8 hPa | - | - | - | - |
| 1777698008 | 11.67° C | 59% | 1023.7 hPa | - | - | - | - |
| 1777697108 | 11.67° C | 58% | 1023.7 hPa | - | - | - | - |
| 1777696208 | 11.67° C | 58% | 1023.6 hPa | - | - | - | - |
| 1777695308 | 11.67° C | 59% | 1023.6 hPa | - | - | - | - |
| 1777694408 | 11.67° C | 57% | 1023.5 hPa | - | - | - | - |
| 1777693508 | 12.22° C | 54% | 1023.4 hPa | - | - | - | - |
| 1777692608 | 12.22° C | 52% | 1023.3 hPa | - | - | - | - |
| 1777691707 | 12.22° C | 52% | 1023.3 hPa | - | - | - | - |
| 1777690807 | 11.67° C | 56% | 1023.3 hPa | - | - | - | - |
| 1777689907 | 11.67° C | 56% | 1023.3 hPa | - | - | - | - |
| 1777689007 | 11.67° C | 58% | 1023.5 hPa | - | - | - | - |
| 1777665604 | 16.67° C | 55% | 1023 hPa | - | - | - | - |
| 1777664704 | 16.67° C | 58% | 1022.8 hPa | - | - | - | - |
| 1777659303 | 18.89° C | 54% | 1021.7 hPa | - | - | - | - |
| 1777649401 | 22.78° C | 45% | 1020.7 hPa | - | - | - | - |
| 1777648501 | 23.33° C | 44% | 1020.8 hPa | - | - | - | - |
| 1777645801 | 21.67° C | 47% | 1021 hPa | - | - | - | - |
| 1777644901 | 22.22° C | 47% | 1021 hPa | - | - | - | - |
* Rain since midnight (hover to see other rain measurements)
** Current wind speed in m/s (hover to see current wind gust speed)